createdAt,value
2016-08-07T07:36:16.620Z,-57.6
2016-08-07T07:36:26.650Z,-57.7
2016-08-07T07:36:36.633Z,-57.2
2016-08-07T07:36:46.634Z,-57.3
2016-08-07T07:36:56.640Z,-57.5
2016-08-07T07:37:06.648Z,-57.8
2016-08-07T07:37:15.915Z,-57.3
2016-08-07T07:37:26.664Z,-57
2016-08-07T07:37:46.015Z,-57.2
2016-08-07T07:37:55.739Z,-57
2016-08-07T07:38:05.318Z,-56.1
2016-08-07T07:38:16.687Z,-56.5
2016-08-07T07:38:26.685Z,-56.3
2016-08-07T07:38:35.955Z,-56
2016-08-07T07:38:46.693Z,-56
2016-08-07T07:38:56.713Z,-55.9
2016-08-07T07:39:05.965Z,-55.5
2016-08-07T07:39:16.705Z,-55.4
2016-08-07T07:39:26.716Z,-55.8
2016-08-07T07:39:35.982Z,-55.6
2016-08-07T07:39:46.721Z,-55.3
2016-08-07T07:39:56.727Z,-56.3
2016-08-07T07:40:06.819Z,-55.8
2016-08-07T07:40:17.491Z,-55.7
2016-08-07T07:40:26.739Z,-55.7
2016-08-07T07:40:36.756Z,-55.3
2016-08-07T07:40:46.747Z,-55.6
2016-08-07T07:40:56.778Z,-55.8
2016-08-07T07:41:06.758Z,-56.1
2016-08-07T07:41:17.091Z,-56.1
2016-08-07T07:41:26.781Z,-55.8
2016-08-07T07:41:36.777Z,-55.6
2016-08-07T07:41:46.778Z,-55.8
2016-08-07T07:41:56.784Z,-55.4
2016-08-07T07:42:06.783Z,-55.9
2016-08-07T07:42:16.794Z,-55.7
2016-08-07T07:42:25.339Z,-55.6
2016-08-07T07:42:36.800Z,-55.7
2016-08-07T07:42:46.801Z,-55.9
2016-08-07T07:42:56.813Z,-55.6
2016-08-07T07:43:06.819Z,-55.9
2016-08-07T07:43:16.821Z,-56
2016-08-07T07:43:27.018Z,-55.7
2016-08-07T07:43:36.103Z,-55.1
2016-08-07T07:43:45.386Z,-55.5
2016-08-07T07:43:56.860Z,-55.5
2016-08-07T07:44:06.844Z,-55.5
2016-08-07T07:44:16.851Z,-55.4
2016-08-07T07:44:26.860Z,-55.3
2016-08-07T07:44:36.196Z,-55.2
2016-08-07T07:44:46.864Z,-55.3
2016-08-07T07:44:56.877Z,-54.9
2016-08-07T07:45:06.145Z,-55.4
2016-08-07T07:45:15.421Z,-55.5
2016-08-07T07:45:26.885Z,-54.9
2016-08-07T07:45:36.908Z,-55.1
2016-08-07T07:45:46.899Z,-55
2016-08-07T07:45:56.898Z,-55.3
2016-08-07T07:46:06.902Z,-55.2
2016-08-07T07:46:16.190Z,-55.4
2016-08-07T07:46:25.889Z,-55.3
2016-08-07T07:46:35.485Z,-55.2
2016-08-07T07:46:46.923Z,-55.3
2016-08-07T07:46:56.201Z,-54.8
2016-08-07T07:47:06.949Z,-55
2016-08-07T07:47:16.934Z,-54.6
2016-08-07T07:47:26.942Z,-54.4
2016-08-07T07:47:36.946Z,-54.2
2016-08-07T07:47:46.950Z,-54.5
2016-08-07T07:47:56.952Z,-54.8
2016-08-07T08:02:00.401Z,-69.7
2016-08-07T08:02:10.412Z,-66.2
2016-08-07T08:02:20.411Z,-64.2
2016-08-07T08:02:30.427Z,-70.6
2016-08-07T08:02:40.417Z,-78
2016-08-07T08:02:50.428Z,-74.3
2016-08-07T08:03:00.431Z,-67.6
2016-08-07T08:03:10.433Z,-65.3
2016-08-07T08:03:20.439Z,-61.7
2016-08-07T08:03:30.442Z,-61.4
2016-08-07T08:03:38.985Z,-61.2
2016-08-07T08:03:50.465Z,-60.7
2016-08-07T08:04:00.456Z,-60.3
2016-08-07T08:04:09.734Z,-60.3
2016-08-07T08:04:20.667Z,-59.8
2016-08-07T08:04:30.470Z,-60.4
2016-08-07T08:04:40.474Z,-60.2
2016-08-07T08:04:50.481Z,-61
2016-08-07T08:04:59.757Z,-61.8
2016-08-07T08:05:10.489Z,-61.7
2016-08-07T08:05:19.820Z,-64.5
2016-08-07T08:05:30.516Z,-69.5
2016-08-07T08:05:40.514Z,-73
2016-08-07T08:05:49.781Z,-62.7
2016-08-07T08:06:00.514Z,-62.7
2016-08-07T08:06:10.520Z,-65.1
2016-08-07T08:06:20.531Z,-68.8
2016-08-07T08:06:30.533Z,-64.5
2016-08-07T08:06:40.534Z,-61.2
2016-08-07T08:06:49.812Z,-60.9
2016-08-07T08:07:00.544Z,-62.7
2016-08-07T08:07:10.564Z,-64.3
2016-08-07T08:07:20.555Z,-65
2016-08-07T08:07:30.559Z,-63.9
2016-08-07T08:07:40.574Z,-61.9
2016-08-07T08:08:00.576Z,-59.5
2016-08-07T08:08:10.589Z,-59.2
2016-08-07T08:08:20.598Z,-59
2016-08-07T08:08:30.591Z,-58.3
2016-08-07T08:08:40.594Z,-58.6
2016-08-07T08:08:50.605Z,-57.8
2016-08-07T08:09:00.604Z,-58.1
2016-08-07T08:09:10.610Z,-58
2016-08-07T08:09:20.629Z,-57.9
2016-08-07T08:09:30.626Z,-58
2016-08-07T08:09:40.626Z,-57.5
2016-08-07T08:09:50.628Z,-57.5
2016-08-07T08:10:00.641Z,-56.9
2016-08-07T08:10:10.641Z,-56.9
2016-08-07T08:10:20.654Z,-57
2016-08-07T08:10:30.649Z,-57.2
2016-08-07T08:10:40.655Z,-57
2016-08-07T08:10:50.658Z,-57.3
2016-08-07T08:11:00.663Z,-57.2
2016-08-07T08:11:09.938Z,-56.9
2016-08-07T08:11:20.675Z,-57.2
2016-08-07T08:11:30.681Z,-57.2
2016-08-07T08:11:40.702Z,-56.7
2016-08-07T08:11:50.700Z,-56.7
2016-08-07T08:12:00.694Z,-56.4
2016-08-07T08:12:09.977Z,-56.2
2016-08-07T08:12:19.974Z,-56.2
2016-08-07T08:12:30.709Z,-55.9
2016-08-07T08:12:39.978Z,-55.8
2016-08-07T08:12:50.723Z,-55.2
2016-08-07T08:13:00.726Z,-55.5
2016-08-07T08:13:10.732Z,-55.5
2016-08-07T08:13:20.003Z,-55.5
2016-08-07T08:13:30.007Z,-55
2016-08-07T08:13:40.739Z,-55.3
2016-08-07T08:13:50.748Z,-54.7
2016-08-07T08:14:00.754Z,-54.9
2016-08-07T08:14:10.761Z,-55.2
2016-08-07T08:14:20.763Z,-55.1
2016-08-07T08:14:30.780Z,-55.9
2016-08-07T08:14:40.773Z,-55.8
2016-08-07T08:14:50.784Z,-56.4
2016-08-07T08:15:00.783Z,-57.4
2016-08-07T08:15:09.328Z,-57.6
2016-08-07T08:15:20.798Z,-58.4
2016-08-07T08:15:30.068Z,-59.1
2016-08-07T08:15:40.819Z,-63.3
2016-08-07T08:15:50.813Z,-72.3
2016-08-07T08:16:00.813Z,-63.7
2016-08-07T08:16:10.080Z,-62.9
2016-08-07T08:16:20.822Z,-70.9
2016-08-07T08:16:30.828Z,-65
2016-08-07T08:16:40.834Z,-68.9
2016-08-07T08:16:50.843Z,-59.4
2016-08-07T08:17:00.842Z,-58.7
2016-08-07T08:17:10.848Z,-58.5
2016-08-07T08:17:20.847Z,-58.5
2016-08-07T08:17:30.857Z,-58.1
2016-08-07T08:17:40.859Z,-59.1
2016-08-07T08:17:50.182Z,-62.6
2016-08-07T08:18:00.134Z,-61.1
2016-08-07T08:18:10.146Z,-62.5
2016-08-07T08:18:20.880Z,-61.3
2016-08-07T08:18:30.894Z,-59.3
2016-08-07T08:18:40.170Z,-58.7
2016-08-07T08:18:50.895Z,-57.9
2016-08-07T08:19:00.910Z,-59.1
2016-08-07T08:19:10.912Z,-58.9
2016-08-07T08:19:20.914Z,-64.5
2016-08-07T08:19:30.183Z,-60
2016-08-07T08:19:40.923Z,-59.8
2016-08-07T08:19:50.929Z,-62.9
2016-08-07T08:20:00.931Z,-61.1
2016-08-07T08:20:10.938Z,-60.9
2016-08-07T08:20:20.938Z,-60.8
2016-08-07T08:20:30.945Z,-60.8
2016-08-07T08:20:40.947Z,-60.9
2016-08-07T08:20:50.961Z,-62.3
2016-08-07T08:21:00.962Z,-63.5
2016-08-07T08:21:10.970Z,-67.5
2016-08-07T08:21:20.288Z,-70.3
2016-08-07T08:21:30.981Z,-78.7
2016-08-07T08:21:40.978Z,-71.1
2016-08-07T08:21:50.986Z,-71.5
2016-08-07T08:22:00.991Z,-79.3
2016-08-07T08:22:11.001Z,-68.7
2016-08-07T08:22:20.999Z,-66.4
2016-08-07T08:22:31.005Z,-62.6
2016-08-07T08:22:41.011Z,-61.1
2016-08-07T08:22:59.844Z,-60.4
2016-08-07T08:23:11.030Z,-58.8
2016-08-07T08:23:19.570Z,-58.7
2016-08-07T08:23:31.040Z,-59.1
2016-08-07T08:23:41.040Z,-59.1
2016-08-07T08:23:49.579Z,-59.4
2016-08-07T08:24:01.048Z,-59.8
2016-08-07T08:24:10.349Z,-59.9
2016-08-07T08:24:20.331Z,-61
2016-08-07T08:24:31.062Z,-63.6
2016-08-07T08:24:41.069Z,-62.5
2016-08-07T08:24:50.345Z,-62.5
2016-08-07T08:25:01.089Z,-62.9
2016-08-07T08:25:10.352Z,-61.6
2016-08-07T08:25:21.106Z,-60.3
2016-08-07T08:25:30.387Z,-60.4
2016-08-07T08:25:40.376Z,-59
2016-08-07T08:25:51.108Z,-59.3
2016-08-07T08:26:01.114Z,-58.8
2016-08-07T08:26:11.127Z,-59.6
2016-08-07T08:26:21.123Z,-60.6
2016-08-07T08:26:31.125Z,-61.2
2016-08-07T08:26:41.133Z,-63.2
2016-08-07T08:26:51.143Z,-64.9
2016-08-07T08:27:01.140Z,-62.2
2016-08-07T08:27:11.150Z,-62
2016-08-07T08:27:21.151Z,-61.4
2016-08-07T08:27:31.171Z,-61.7
2016-08-07T08:27:40.424Z,-62.3
2016-08-07T08:27:51.170Z,-62.9
2016-08-07T08:28:01.173Z,-64.1
2016-08-07T08:28:11.184Z,-68.4
2016-08-07T08:28:21.195Z,-69
2016-08-07T08:28:31.194Z,-64.3
2016-08-07T08:28:40.460Z,-60.2
2016-08-07T08:28:51.199Z,-58.1
2016-08-07T08:29:01.203Z,-56.9
2016-08-07T08:29:10.472Z,-56.1
2016-08-07T08:29:21.216Z,-56
2016-08-07T08:29:31.216Z,-55.9
2016-08-07T08:29:41.224Z,-55.3
2016-08-07T08:29:51.232Z,-55.1
2016-08-07T08:30:01.234Z,-54.9
2016-08-07T08:30:11.242Z,-55.1
2016-08-07T08:30:21.249Z,-54.7
2016-08-07T08:30:31.249Z,-55.1
2016-08-07T08:30:41.268Z,-55.2
2016-08-07T08:30:51.261Z,-56.3
2016-08-07T08:31:01.263Z,-54.9
2016-08-07T08:31:11.345Z,-55.4
2016-08-07T08:31:21.287Z,-55.1
2016-08-07T08:31:30.552Z,-55.5
2016-08-07T08:31:41.294Z,-54.9
2016-08-07T08:31:50.609Z,-55.9
2016-08-07T08:32:01.308Z,-57.4
2016-08-07T08:32:10.571Z,-60.5
2016-08-07T08:32:21.303Z,-56.5
2016-08-07T08:32:31.313Z,-55.8
2016-08-07T08:32:40.590Z,-54.9
2016-08-07T08:32:50.678Z,-54.5
2016-08-07T08:33:01.323Z,-54.1
2016-08-07T08:33:11.485Z,-54.8
2016-08-07T08:33:21.336Z,-56.5
2016-08-07T08:33:31.339Z,-56.6
2016-08-07T08:33:41.342Z,-56.7
2016-08-07T08:33:50.613Z,-57.3
2016-08-07T08:34:01.355Z,-57.2
2016-08-07T08:34:11.358Z,-56
2016-08-07T08:34:21.366Z,-55.8
2016-08-07T08:34:31.371Z,-55.3
2016-08-07T08:34:41.374Z,-55.6
2016-08-07T08:34:51.380Z,-54.5
2016-08-07T08:35:00.654Z,-54.2
2016-08-07T08:35:11.386Z,-53.9
2016-08-07T08:35:21.391Z,-53.5
2016-08-07T08:35:31.399Z,-53.5
2016-08-07T08:35:41.403Z,-53.9
2016-08-07T08:35:51.410Z,-54
2016-08-07T08:36:01.415Z,-53.9
2016-08-07T08:36:11.419Z,-54.9
2016-08-07T08:36:21.424Z,-56
2016-08-07T08:36:31.437Z,-94
2016-08-07T08:36:41.435Z,-58.5
2016-08-07T08:36:51.444Z,-54.1
2016-08-07T08:37:01.454Z,-53.1
2016-08-07T08:37:11.449Z,-52.9
2016-08-07T08:37:21.454Z,-53.7
2016-08-07T08:37:31.459Z,-53.3
2016-08-07T08:37:40.735Z,-53.6
2016-08-07T08:37:50.745Z,-53.2
2016-08-07T08:38:11.480Z,-52.5
2016-08-07T08:38:21.484Z,-52.7
2016-08-07T08:38:31.488Z,-52.4
2016-08-07T08:38:41.493Z,-52.5
2016-08-07T08:38:51.500Z,-52.2
2016-08-07T08:39:01.501Z,-52.4
2016-08-07T08:39:10.780Z,-52.1
2016-08-07T08:39:21.516Z,-52.4
2016-08-07T08:39:31.524Z,-52.2
2016-08-07T08:39:41.526Z,-52.2
2016-08-07T08:39:51.531Z,-52.2
2016-08-07T08:40:00.801Z,-51.9
2016-08-07T08:40:11.552Z,-52
2016-08-07T08:40:21.539Z,-52.3
2016-08-07T08:40:31.547Z,-52
2016-08-07T08:40:40.877Z,-52.6
2016-08-07T08:40:48.653Z,-52.5
2016-08-07T08:41:01.580Z,-52.8
2016-08-07T08:41:11.572Z,-53
2016-08-07T08:41:21.573Z,-53.4
2016-08-07T08:41:30.860Z,-53.5
2016-08-07T08:41:41.583Z,-53.9
2016-08-07T08:41:50.907Z,-54.6
2016-08-07T08:42:01.612Z,-55.9
2016-08-07T08:42:11.599Z,-58
2016-08-07T08:42:20.165Z,-65.4
2016-08-07T08:42:31.609Z,-86.7
2016-08-07T08:42:41.616Z,-85.9
2016-08-07T08:42:51.618Z,-67.6
2016-08-07T08:43:00.896Z,-62
2016-08-07T08:43:11.629Z,-67.4
2016-08-07T08:43:21.632Z,-55.9
2016-08-07T08:43:30.909Z,-54.6
2016-08-07T08:43:41.648Z,-54.1
2016-08-07T08:43:51.652Z,-53.6
2016-08-07T08:44:00.922Z,-53.6
2016-08-07T08:44:11.662Z,-53.7
2016-08-07T08:44:21.669Z,-53.4
2016-08-07T08:44:30.218Z,-53.8
2016-08-07T08:44:41.672Z,-54.1
2016-08-07T08:44:51.681Z,-54.3
2016-08-07T08:45:01.696Z,-54.8
2016-08-07T08:45:10.218Z,-54.3
2016-08-07T08:45:21.695Z,-53.7
2016-08-07T08:45:30.975Z,-53.7
2016-08-07T08:45:41.706Z,-54.3
2016-08-07T08:45:50.980Z,-54
2016-08-07T08:46:00.980Z,-54.7
2016-08-07T08:46:11.718Z,-54.3
2016-08-07T08:46:21.718Z,-54.6
2016-08-07T08:46:30.996Z,-55.6
2016-08-07T08:46:41.746Z,-54.5
2016-08-07T08:46:51.735Z,-54.5
2016-08-07T08:47:01.746Z,-54.5
2016-08-07T08:47:11.009Z,-54.7
2016-08-07T08:47:21.023Z,-54.8
2016-08-07T08:47:30.316Z,-54.7
2016-08-07T08:47:41.760Z,-56
2016-08-07T08:47:50.310Z,-56.8
2016-08-07T08:48:01.805Z,-58.9
2016-08-07T08:48:11.792Z,-60
2016-08-07T08:48:21.779Z,-62.1
2016-08-07T08:48:31.790Z,-56.7
2016-08-07T08:48:41.793Z,-55.5
2016-08-07T08:48:51.794Z,-54.5
2016-08-07T08:49:01.807Z,-53.9
2016-08-07T08:49:11.811Z,-53.9
2016-08-07T08:49:21.810Z,-53.9
2016-08-07T08:49:31.822Z,-54.5
2016-08-07T08:49:41.817Z,-55.7
2016-08-07T08:49:51.849Z,-59.7
2016-08-07T08:50:01.826Z,-74.6
2016-08-07T08:50:11.838Z,-74.8
2016-08-07T08:50:21.839Z,-117.6
2016-08-07T08:50:31.843Z,-79.8
2016-08-07T08:50:41.119Z,-64
2016-08-07T08:50:51.861Z,-59.7
2016-08-07T08:51:01.127Z,-57.9
2016-08-07T08:51:11.860Z,-58.2
2016-08-07T08:51:21.882Z,-59.2
2016-08-07T08:51:31.877Z,-60.1
2016-08-07T08:51:41.875Z,-65.5
2016-08-07T08:51:51.880Z,-84.6
2016-08-07T08:52:01.162Z,-64.3
2016-08-07T08:52:11.160Z,-66.1
2016-08-07T08:52:21.904Z,-63.3
2016-08-07T08:52:31.903Z,-66
2016-08-07T08:52:41.907Z,-82.3
2016-08-07T08:52:51.910Z,-149.2
2016-08-07T08:53:10.737Z,-120.5
2016-08-07T08:53:21.926Z,-102
2016-08-07T08:53:31.929Z,-180.1
2016-08-07T08:53:41.937Z,-91.6
2016-08-07T08:53:51.214Z,-84.3
2016-08-07T08:54:01.942Z,-90.7
2016-08-07T08:54:11.959Z,-85.2
2016-08-07T08:54:21.957Z,-108.4
2016-08-07T08:54:31.963Z,-107.7
2016-08-07T08:54:41.967Z,-81.2
2016-08-07T08:54:51.981Z,-82.3
2016-08-07T08:55:01.983Z,-78.7
2016-08-07T08:55:11.252Z,-103.8
2016-08-07T08:55:21.252Z,-96.9
2016-08-07T08:55:31.263Z,-161.8
2016-08-07T08:55:40.534Z,-81.5
2016-08-07T08:55:50.545Z,-79.5
2016-08-07T08:56:02.007Z,-72.3
2016-08-07T08:56:12.021Z,-71.4
2016-08-07T08:56:22.016Z,-77.9
2016-08-07T08:56:32.024Z,-87.8
2016-08-07T08:56:41.400Z,-134
2016-08-07T08:56:52.196Z,-70.8
2016-08-07T08:57:02.123Z,-68.9
2016-08-07T08:57:12.042Z,-73.9
2016-08-07T08:57:22.067Z,-129.2
2016-08-07T08:57:31.319Z,-87.7
2016-08-07T08:57:42.060Z,-127.9
2016-08-07T08:57:52.060Z,-106.1
2016-08-07T08:58:02.072Z,-86
2016-08-07T08:58:12.079Z,-93.7
2016-08-07T08:58:21.407Z,-144.4
2016-08-07T08:58:31.360Z,-107.3
2016-08-07T08:58:42.093Z,-84.8
2016-08-07T08:58:50.632Z,-88.8
2016-08-07T08:59:01.365Z,-103.9
2016-08-07T08:59:12.113Z,-103.7
2016-08-07T08:59:21.389Z,-130.8
2016-08-07T08:59:32.116Z,-87.9
2016-08-07T08:59:42.122Z,-81.8
2016-08-07T08:59:52.132Z,-74.9
2016-08-07T09:00:02.135Z,-74.9
2016-08-07T09:00:12.141Z,-73.9
2016-08-07T09:00:21.418Z,-71.4
2016-08-07T09:00:32.156Z,-76
2016-08-07T09:00:42.172Z,-82.3
2016-08-07T09:00:52.177Z,-103.8
2016-08-07T09:01:02.165Z,-110.5
2016-08-07T09:01:12.171Z,-173.7
2016-08-07T09:01:22.173Z,-180.5
2016-08-07T09:01:32.185Z,-125
2016-08-07T09:01:42.183Z,-111.8
2016-08-07T09:01:52.198Z,-127.5
2016-08-07T09:02:02.198Z,-131.3
2016-08-07T09:02:12.201Z,-133.2
2016-08-07T09:02:22.207Z,-144.3
2016-08-07T09:02:31.475Z,-115.8
2016-08-07T09:02:42.222Z,-109.4
2016-08-07T09:02:52.230Z,-100.4
2016-08-07T09:03:02.229Z,-92.6
2016-08-07T09:03:12.237Z,-87.3
2016-08-07T09:03:22.243Z,-72.5
2016-08-07T09:03:32.246Z,-67.6
2016-08-07T09:03:42.255Z,-64.4
2016-08-07T09:03:52.349Z,-62.4
2016-08-07T09:04:02.264Z,-61.1
2016-08-07T09:04:11.594Z,-59.8
2016-08-07T09:04:22.285Z,-59.8
2016-08-07T09:04:32.292Z,-58.5
2016-08-07T09:04:42.295Z,-57.8
2016-08-07T09:04:52.303Z,-57.2
2016-08-07T09:05:02.310Z,-56.7
2016-08-07T09:05:10.843Z,-56.4
2016-08-07T09:05:22.308Z,-56.5
2016-08-07T09:05:32.344Z,-55.8
2016-08-07T09:05:42.430Z,-56.4
2016-08-07T09:05:51.597Z,-57.4
2016-08-07T09:06:02.331Z,-58.4
2016-08-07T09:06:12.339Z,-57.4
2016-08-07T09:06:21.618Z,-56.1
2016-08-07T09:06:32.354Z,-55.7
2016-08-07T09:06:42.349Z,-55.6
2016-08-07T09:06:51.627Z,-56.7
2016-08-07T09:07:02.362Z,-58.1
2016-08-07T09:07:12.365Z,-58.6
2016-08-07T09:07:21.653Z,-55.9
2016-08-07T09:07:30.930Z,-55.3
2016-08-07T09:07:42.384Z,-54.5
2016-08-07T09:07:52.391Z,-55.1
2016-08-07T09:08:11.047Z,-55.1
2016-08-07T09:08:22.409Z,-55.3
2016-08-07T09:08:32.409Z,-55.2
2016-08-07T09:08:42.559Z,-55.5
2016-08-07T09:08:52.427Z,-56.2
2016-08-07T09:09:02.433Z,-56.8
2016-08-07T09:09:12.437Z,-57.5
2016-08-07T09:09:22.441Z,-61.4
2016-08-07T09:09:32.442Z,-87.3
2016-08-07T09:09:42.446Z,-88.3
2016-08-07T09:09:52.458Z,-78.1
2016-08-07T09:10:02.463Z,-103.4
2016-08-07T09:10:12.463Z,-104.3
2016-08-07T09:10:22.475Z,-97.3
2016-08-07T09:10:32.477Z,-81.4
2016-08-07T09:10:42.485Z,-81.9
2016-08-07T09:10:52.492Z,-66.4
2016-08-07T09:11:02.493Z,-62.7
2016-08-07T09:11:12.498Z,-65.7
2016-08-07T09:11:22.504Z,-75.7
2016-08-07T09:11:32.507Z,-65.9
2016-08-07T09:11:42.533Z,-61.9
2016-08-07T09:11:52.030Z,-59.1
2016-08-07T09:12:01.791Z,-58.2
2016-08-07T09:12:12.532Z,-57.8
2016-08-07T09:12:22.539Z,-56.9
2016-08-07T09:12:31.809Z,-56.7
2016-08-07T09:12:42.070Z,-58
2016-08-07T09:12:52.552Z,-65.4
2016-08-07T09:13:02.562Z,-59.4
2016-08-07T09:13:12.564Z,-58.5
2016-08-07T09:13:22.564Z,-59.4
2016-08-07T09:13:32.576Z,-59.1
2016-08-07T09:13:41.838Z,-61
2016-08-07T09:13:52.584Z,-67.6
2016-08-07T09:14:02.587Z,-78.5
2016-08-07T09:14:10.411Z,-94.9
2016-08-07T09:14:22.619Z,-100
2016-08-07T09:14:32.606Z,-80.8
2016-08-07T09:14:42.606Z,-95.4
2016-08-07T09:14:52.616Z,-94.4
2016-08-07T09:15:02.619Z,-94.3
2016-08-07T09:15:12.622Z,-76.3
2016-08-07T09:15:22.644Z,-83.9
2016-08-07T09:15:32.631Z,-102.7
2016-08-07T09:15:42.638Z,-114.7
2016-08-07T09:15:52.646Z,-119.4
2016-08-07T09:16:01.933Z,-142.1
2016-08-07T09:16:12.658Z,-143.4
2016-08-07T09:16:22.663Z,-136.5
2016-08-07T09:16:32.670Z,-124.6
2016-08-07T09:16:42.671Z,-132.9
2016-08-07T09:16:52.677Z,-154
2016-08-07T09:17:02.684Z,-141.1
2016-08-07T09:17:12.686Z,-158.6
2016-08-07T09:17:22.695Z,-198
2016-08-07T09:17:32.699Z,-199.9
2016-08-07T09:17:42.706Z,-190
2016-08-07T09:17:52.703Z,-188
2016-08-07T09:18:02.713Z,-159.1
2016-08-07T09:18:12.725Z,-167.4
2016-08-07T09:18:21.992Z,-192.5
2016-08-07T09:18:32.005Z,-194.8
2016-08-07T09:18:42.734Z,-212.1
2016-08-07T09:18:52.016Z,-220.8
2016-08-07T09:19:02.746Z,-264.3
2016-08-07T09:19:12.750Z,-270
2016-08-07T09:19:22.759Z,-280.3
2016-08-07T09:19:32.762Z,-274.4
2016-08-07T09:19:42.770Z,-277.2
2016-08-07T09:19:52.771Z,-277.6
2016-08-07T09:20:02.784Z,-285.3
2016-08-07T09:20:12.783Z,-283.6
2016-08-07T09:20:22.795Z,-282.7
2016-08-07T09:20:32.807Z,-282.6
2016-08-07T09:20:42.804Z,-282.7
2016-08-07T09:20:52.806Z,-282.2
2016-08-07T09:21:02.814Z,-282.8
2016-08-07T09:21:12.825Z,-282.5
2016-08-07T09:21:22.865Z,-283.1
2016-08-07T09:21:32.832Z,-283.1
2016-08-07T09:21:42.835Z,-281.7
2016-08-07T09:21:52.107Z,-282.2
2016-08-07T09:22:02.117Z,-281.8
2016-08-07T09:22:12.853Z,-281.7
2016-08-07T09:22:22.863Z,-282.2
2016-08-07T09:22:31.410Z,-282.9
2016-08-07T09:22:42.872Z,-280.4
2016-08-07T09:22:52.887Z,-260.6
2016-08-07T09:23:02.890Z,-262.7
2016-08-07T09:23:32.903Z,-287
2016-08-07T09:23:42.911Z,-272.4
2016-08-07T09:23:52.180Z,-262.9
2016-08-07T09:24:02.976Z,-282.6
2016-08-07T09:24:12.934Z,-288.3
2016-08-07T09:24:22.207Z,-276.5
2016-08-07T09:24:32.944Z,-249.8
2016-08-07T09:24:42.216Z,-211.9
2016-08-07T09:24:52.960Z,-205.7
2016-08-07T09:25:02.965Z,-159.3
2016-08-07T09:25:12.968Z,-279.8
2016-08-07T09:25:22.978Z,-208.1
2016-08-07T09:25:32.253Z,-182.3
2016-08-07T09:25:42.993Z,-230
2016-08-07T09:25:53.005Z,-287
2016-08-07T09:26:03.002Z,-259.9
2016-08-07T09:26:13.013Z,-238.8
2016-08-07T09:26:23.011Z,-224.7
2016-08-07T09:26:32.297Z,-260.6
2016-08-07T09:26:43.040Z,-279.9
2016-08-07T09:26:53.035Z,-276.6
2016-08-07T09:27:03.042Z,-273.3
2016-08-07T09:27:12.329Z,-286.4
2016-08-07T09:27:23.060Z,-156.5
2016-08-07T09:27:33.060Z,-94.5
2016-08-07T09:27:43.073Z,-93.4
2016-08-07T09:27:53.075Z,-138.1
2016-08-07T09:28:03.080Z,-268.9
2016-08-07T09:28:13.094Z,-278.4
2016-08-07T09:28:23.088Z,-262.8
2016-08-07T09:28:33.099Z,-195.8
2016-08-07T09:28:43.121Z,-121.8
2016-08-07T09:28:53.114Z,-157
2016-08-07T09:29:03.120Z,-105.6
2016-08-07T09:29:13.126Z,-95.3
2016-08-07T09:29:23.140Z,-171.7
2016-08-07T09:29:32.401Z,-115.6
2016-08-07T09:29:43.148Z,-107
2016-08-07T09:29:53.154Z,-87.1
2016-08-07T09:30:03.161Z,-75.9
2016-08-07T09:30:13.171Z,-77.8
2016-08-07T09:30:23.182Z,-94.2
2016-08-07T09:30:33.177Z,-94.1
2016-08-07T09:30:42.460Z,-108.7
2016-08-07T09:30:53.198Z,-113.1
2016-08-07T09:31:03.198Z,-117
2016-08-07T09:31:13.201Z,-74.6
2016-08-07T09:31:23.213Z,-70.7
2016-08-07T09:31:33.214Z,-154.6
2016-08-07T09:31:43.224Z,-97.8
2016-08-07T09:31:53.226Z,-69
2016-08-07T09:32:03.234Z,-67.5
2016-08-07T09:32:13.250Z,-95.6
2016-08-07T09:32:23.251Z,-81.4
2016-08-07T09:32:33.249Z,-68.7
2016-08-07T09:32:43.260Z,-110.5
2016-08-07T09:32:53.266Z,-85.7
2016-08-07T09:33:03.272Z,-142.3
2016-08-07T09:33:13.284Z,-113.6
2016-08-07T09:33:22.556Z,-74.6
2016-08-07T09:33:33.288Z,-97.8
2016-08-07T09:33:42.565Z,-72.6
2016-08-07T09:33:51.842Z,-68.2
2016-08-07T09:34:03.311Z,-211.7
2016-08-07T09:34:13.315Z,-182.5
2016-08-07T09:34:23.323Z,-74.8
2016-08-07T09:34:33.328Z,-70
2016-08-07T09:34:42.603Z,-86.8
2016-08-07T09:34:53.337Z,-73.6
2016-08-07T09:35:03.350Z,-193.3
2016-08-07T09:35:12.621Z,-215.8
2016-08-07T09:35:22.628Z,-226.3
2016-08-07T09:35:33.360Z,-223.5
2016-08-07T09:35:43.371Z,-169.7
2016-08-07T09:35:53.374Z,-139
2016-08-07T09:36:03.386Z,-135.1
2016-08-07T09:36:13.384Z,-107
2016-08-07T09:36:23.396Z,-164.7
2016-08-07T09:36:33.399Z,-98.3
2016-08-07T09:36:43.404Z,-230.8
2016-08-07T09:36:53.409Z,-108.2
2016-08-07T09:37:03.413Z,-145.7
2016-08-07T09:37:12.693Z,-147.2
2016-08-07T09:37:23.423Z,-116.3
2016-08-07T09:37:33.434Z,-171.2
2016-08-07T09:37:43.444Z,-135
2016-08-07T09:37:52.709Z,-105.8
2016-08-07T09:38:03.455Z,-121.1
2016-08-07T09:38:13.463Z,-88.4
2016-08-07T09:38:22.723Z,-101
2016-08-07T09:38:42.746Z,-107.7
2016-08-07T09:38:52.799Z,-77.7
2016-08-07T09:39:03.484Z,-69.8
2016-08-07T09:39:13.489Z,-72.4
2016-08-07T09:39:23.499Z,-71.4
2016-08-07T09:39:33.508Z,-116.2
2016-08-07T09:39:43.507Z,-106.4
2016-08-07T09:39:53.523Z,-94.3
2016-08-07T09:40:02.781Z,-120.2
2016-08-07T09:40:12.794Z,-98.6
2016-08-07T09:40:23.533Z,-152.4
2016-08-07T09:40:32.815Z,-189.7
2016-08-07T09:40:43.540Z,-102.9
2016-08-07T09:40:53.552Z,-115.7
2016-08-07T09:41:03.555Z,-114.3
2016-08-07T09:41:13.557Z,-161.3
2016-08-07T09:41:23.566Z,-171.8
2016-08-07T09:41:32.113Z,-125.7
2016-08-07T09:41:43.575Z,-167.6
2016-08-07T09:41:53.634Z,-149
2016-08-07T09:42:03.591Z,-151.4
2016-08-07T09:42:13.599Z,-177.4
2016-08-07T09:42:23.602Z,-136.2
2016-08-07T09:42:33.609Z,-73.5
2016-08-07T09:42:43.614Z,-96.9
2016-08-07T09:42:53.620Z,-91.4
2016-08-07T09:43:03.627Z,-67.3
2016-08-07T09:43:13.630Z,-67.5
2016-08-07T09:43:23.637Z,-66.5
2016-08-07T09:43:33.642Z,-65.6
2016-08-07T09:43:43.646Z,-71.9
2016-08-07T09:43:53.656Z,-80.6
2016-08-07T09:44:03.659Z,-81
2016-08-07T09:44:13.663Z,-76.7
2016-08-07T09:44:23.674Z,-134.1
2016-08-07T09:44:33.677Z,-105.9
2016-08-07T09:44:43.694Z,-78.7
2016-08-07T09:44:53.695Z,-86.4
2016-08-07T09:45:03.697Z,-95.4
2016-08-07T09:45:13.700Z,-75.5
2016-08-07T09:45:23.702Z,-67.3
2016-08-07T09:45:33.714Z,-74.5
2016-08-07T09:45:43.711Z,-69.6
2016-08-07T09:45:53.719Z,-70
2016-08-07T09:46:03.727Z,-70.6
2016-08-07T09:46:13.732Z,-65.3
2016-08-07T09:46:23.741Z,-68.8
2016-08-07T09:46:33.745Z,-65.9
2016-08-07T09:46:43.749Z,-65.3
2016-08-07T09:46:53.758Z,-64.6
2016-08-07T09:47:03.756Z,-65.8
2016-08-07T09:47:13.764Z,-61.7
2016-08-07T09:47:23.771Z,-61.9
2016-08-07T09:47:33.773Z,-62.9
2016-08-07T09:47:43.780Z,-62
2016-08-07T09:47:53.795Z,-62.5
2016-08-07T09:48:03.804Z,-62.7
2016-08-07T09:48:13.066Z,-61.9
2016-08-07T09:48:23.801Z,-61.4
2016-08-07T09:48:33.074Z,-61.1
2016-08-07T09:48:43.815Z,-59.4
2016-08-07T09:48:53.818Z,-57.2
2016-08-07T09:49:03.824Z,-58.8
2016-08-07T09:49:13.829Z,-57
2016-08-07T09:49:23.834Z,-56.1
2016-08-07T09:49:33.842Z,-55.4
2016-08-07T09:49:43.846Z,-54.9
2016-08-07T09:49:53.849Z,-54.7
2016-08-07T09:50:03.858Z,-54.3
2016-08-07T09:50:13.869Z,-53.5
2016-08-07T09:50:23.875Z,-53.3
2016-08-07T09:50:33.876Z,-52.2
2016-08-07T09:50:42.419Z,-52.2
2016-08-07T09:50:53.884Z,-51.9
2016-08-07T09:51:03.167Z,-51.8
2016-08-07T09:51:13.895Z,-51.7
2016-08-07T09:51:23.903Z,-51.2
2016-08-07T09:51:33.904Z,-50.9
2016-08-07T09:51:43.915Z,-51.2
2016-08-07T09:51:52.450Z,-50.8
2016-08-07T09:52:02.455Z,-50.9
2016-08-07T09:52:13.934Z,-51.1
2016-08-07T09:52:23.938Z,-51.2
2016-08-07T09:52:33.940Z,-50.4
2016-08-07T09:52:43.945Z,-50.8
2016-08-07T09:52:53.958Z,-50.7
2016-08-07T09:53:03.954Z,-50.6
2016-08-07T09:53:13.960Z,-50.8
2016-08-07T09:53:33.975Z,-50.4
2016-08-07T09:53:43.976Z,-50.8
2016-08-07T09:53:53.248Z,-51.1
2016-08-07T09:54:03.988Z,-51
2016-08-07T09:54:13.990Z,-51.3
2016-08-07T09:54:23.995Z,-51
2016-08-07T09:54:34.005Z,-50.7
2016-08-07T09:54:44.006Z,-50.4
2016-08-07T09:54:54.018Z,-50.9
2016-08-07T09:55:04.018Z,-51.3
2016-08-07T09:55:14.021Z,-51
2016-08-07T09:55:24.028Z,-51
2016-08-07T09:55:34.040Z,-51.4
2016-08-07T09:55:44.040Z,-51.5
2016-08-07T09:55:54.046Z,-51.7
2016-08-07T09:56:04.048Z,-52.3
2016-08-07T09:56:14.055Z,-52.8
2016-08-07T09:56:24.063Z,-52.8
2016-08-07T09:56:34.071Z,-53.6
2016-08-07T09:56:44.080Z,-53.5
2016-08-07T09:56:54.072Z,-53.4
2016-08-07T09:57:04.078Z,-53.8
2016-08-07T09:57:13.367Z,-53.9
2016-08-07T09:57:23.367Z,-54
2016-08-07T09:57:34.099Z,-53.6
2016-08-07T09:57:44.115Z,-53.6
2016-08-07T09:57:54.141Z,-53.6
2016-08-07T09:58:04.117Z,-52.8
2016-08-07T09:58:14.126Z,-52.6
2016-08-07T09:58:24.126Z,-52.5
2016-08-07T09:58:32.663Z,-51.8
2016-08-07T09:58:44.135Z,-52.5
2016-08-07T09:58:54.143Z,-52.3
2016-08-07T09:59:03.418Z,-52.8
2016-08-07T09:59:14.155Z,-52
2016-08-07T09:59:24.161Z,-51.9
2016-08-07T09:59:33.437Z,-51.8
2016-08-07T09:59:44.173Z,-52.3
2016-08-07T09:59:54.214Z,-51.2
2016-08-07T10:00:04.178Z,-51.8
2016-08-07T10:00:14.186Z,-52.2
2016-08-07T10:00:24.189Z,-52.3
2016-08-07T10:00:34.197Z,-51.6